createdAt,value
2023-02-13T00:00:18.871Z,2.63
2023-02-13T00:02:46.320Z,2.40
2023-02-13T00:05:13.780Z,2.10
2023-02-13T00:07:41.319Z,3.00
2023-02-13T00:10:09.265Z,3.40
2023-02-13T00:12:36.755Z,2.50
2023-02-13T00:15:04.632Z,2.03
2023-02-13T00:17:32.357Z,2.40
2023-02-13T00:19:59.886Z,2.60
2023-02-13T00:22:27.466Z,2.63
2023-02-13T00:24:54.809Z,2.73
2023-02-13T00:27:22.373Z,3.40
2023-02-13T00:29:49.772Z,2.57
2023-02-13T00:32:17.243Z,2.70
2023-02-13T00:34:44.656Z,2.70
2023-02-13T00:37:12.035Z,4.23
2023-02-13T00:39:39.483Z,2.50
2023-02-13T00:42:07.150Z,2.50
2023-02-13T00:44:34.538Z,2.50
2023-02-13T00:47:01.975Z,2.50
2023-02-13T00:49:29.323Z,2.80
2023-02-13T00:51:56.670Z,2.73
2023-02-13T00:54:24.061Z,2.90
2023-02-13T00:56:51.430Z,2.87
2023-02-13T00:59:18.831Z,2.60
2023-02-13T01:01:46.312Z,2.90
2023-02-13T01:04:13.863Z,3.03
2023-02-13T01:06:41.275Z,3.20
2023-02-13T01:09:08.722Z,3.13
2023-02-13T01:11:36.122Z,2.83
2023-02-13T01:14:03.491Z,2.40
2023-02-13T01:16:30.907Z,3.07
2023-02-13T01:18:58.341Z,3.50
2023-02-13T01:21:25.709Z,3.57
2023-02-13T01:23:53.110Z,2.73
2023-02-13T01:26:21.365Z,2.40
2023-02-13T01:28:48.982Z,3.00
2023-02-13T01:31:16.443Z,3.73
2023-02-13T01:33:43.927Z,2.80
2023-02-13T01:36:12.544Z,4.53
2023-02-13T01:38:39.991Z,4.53
2023-02-13T01:41:07.820Z,5.07
2023-02-13T01:43:54.995Z,3.80
2023-02-13T01:46:27.156Z,4.23
2023-02-13T01:48:56.805Z,4.00
2023-02-13T01:51:27.838Z,4.70
2023-02-13T01:53:59.029Z,5.03
2023-02-13T01:56:46.304Z,4.40
2023-02-13T01:59:16.104Z,4.20
2023-02-13T02:01:43.879Z,5.50
2023-02-13T02:04:16.486Z,5.03
2023-02-13T02:06:45.607Z,5.27
2023-02-13T02:09:17.664Z,4.07
2023-02-13T02:12:05.056Z,3.83
2023-02-13T02:14:32.793Z,4.97
2023-02-13T02:17:00.198Z,4.87
2023-02-13T02:19:47.402Z,5.47
2023-02-13T02:22:34.647Z,4.07
2023-02-13T02:25:22.017Z,4.53
2023-02-13T02:27:59.441Z,5.53
2023-02-13T02:30:46.864Z,4.10
2023-02-13T02:33:34.076Z,3.90
2023-02-13T02:36:21.312Z,4.40
2023-02-13T02:38:56.300Z,4.20
2023-02-13T02:41:43.648Z,5.45
2023-02-13T02:44:27.939Z,4.53
2023-02-13T02:47:34.561Z,4.33
2023-02-13T02:52:49.497Z,4.63
2023-02-13T02:55:36.731Z,4.73
2023-02-13T02:58:29.988Z,3.47
2023-02-13T03:01:18.505Z,3.90
2023-02-13T03:04:07.185Z,4.53
2023-02-13T03:06:38.852Z,4.77
2023-02-13T03:09:31.228Z,4.07
2023-02-13T03:12:18.743Z,4.13
2023-02-13T03:14:46.183Z,4.07
2023-02-13T03:17:35.085Z,4.20
2023-02-13T03:20:42.170Z,4.77
2023-02-13T03:23:18.893Z,4.07
2023-02-13T03:26:01.007Z,3.93
2023-02-13T03:28:56.478Z,4.00
2023-02-13T03:31:35.591Z,3.90
2023-02-13T03:34:05.658Z,4.13
2023-02-13T03:36:55.837Z,4.10
2023-02-13T03:39:43.052Z,4.13
2023-02-13T03:42:14.922Z,4.93
2023-02-13T03:44:45.490Z,3.30
2023-02-13T03:47:14.204Z,4.07
2023-02-13T03:50:07.998Z,4.27
2023-02-13T03:52:55.237Z,3.60
2023-02-13T03:55:45.851Z,4.00
2023-02-13T03:58:36.544Z,4.10
2023-02-13T04:01:05.946Z,3.90
2023-02-13T04:03:37.035Z,3.53
2023-02-13T04:06:07.241Z,3.90
2023-02-13T04:08:34.694Z,4.13
2023-02-13T04:11:10.526Z,3.87
2023-02-13T04:13:43.573Z,4.00
2023-02-13T04:16:12.500Z,3.77
2023-02-13T04:18:40.616Z,3.43
2023-02-13T04:21:08.534Z,3.87
2023-02-13T04:23:37.072Z,3.77
2023-02-13T04:26:06.367Z,3.53
2023-02-13T04:28:33.935Z,3.83
2023-02-13T04:31:02.201Z,3.33
2023-02-13T04:33:29.866Z,3.97
2023-02-13T04:35:57.275Z,4.23
2023-02-13T04:38:24.606Z,3.23
2023-02-13T04:40:51.990Z,3.80
2023-02-13T04:43:19.307Z,3.30
2023-02-13T04:45:49.518Z,4.27
2023-02-13T04:48:16.983Z,3.87
2023-02-13T04:50:44.409Z,3.93
2023-02-13T04:53:11.795Z,3.93
2023-02-13T04:55:39.187Z,3.70
2023-02-13T04:58:06.547Z,3.80
2023-02-13T05:00:33.925Z,3.67
2023-02-13T05:03:02.131Z,3.57
2023-02-13T05:05:29.501Z,3.67
2023-02-13T05:07:56.853Z,4.50
2023-02-13T05:10:24.187Z,3.70
2023-02-13T05:12:51.501Z,3.70
2023-02-13T05:15:18.898Z,4.03
2023-02-13T05:17:46.751Z,3.93
2023-02-13T05:20:14.848Z,4.03
2023-02-13T05:23:10.016Z,4.17
2023-02-13T05:25:38.304Z,4.50
2023-02-13T05:28:25.835Z,4.17
2023-02-13T05:30:53.542Z,10.70
2023-02-13T05:33:20.909Z,13.27
2023-02-13T05:35:48.223Z,6.70
2023-02-13T05:38:15.636Z,4.63
2023-02-13T05:40:43.001Z,4.67
2023-02-13T05:43:10.390Z,4.70
2023-02-13T05:45:37.735Z,4.30
2023-02-13T05:48:05.090Z,5.23
2023-02-13T05:50:32.475Z,4.60
2023-02-13T05:52:59.797Z,5.10
2023-02-13T05:55:27.148Z,5.57
2023-02-13T05:57:58.030Z,4.07
2023-02-13T06:00:25.541Z,5.20
2023-02-13T06:02:52.920Z,4.70
2023-02-13T06:05:20.285Z,3.60
2023-02-13T06:07:47.646Z,3.30
2023-02-13T06:10:15.027Z,3.50
2023-02-13T06:12:43.565Z,4.10
2023-02-13T06:15:10.875Z,3.50
2023-02-13T06:17:38.262Z,4.13
2023-02-13T06:20:05.947Z,3.03
2023-02-13T06:22:33.518Z,3.33
2023-02-13T06:25:00.906Z,3.47
2023-02-13T06:27:28.311Z,3.80
2023-02-13T06:29:55.669Z,3.37
2023-02-13T06:32:23.054Z,3.90
2023-02-13T06:34:50.402Z,3.40
2023-02-13T06:37:17.746Z,3.03
2023-02-13T06:39:45.476Z,3.63
2023-02-13T06:42:12.872Z,3.00
2023-02-13T06:44:40.221Z,3.10
2023-02-13T06:47:07.637Z,3.50
2023-02-13T06:49:34.970Z,3.47
2023-02-13T06:52:02.314Z,4.20
2023-02-13T06:54:45.926Z,3.70
2023-02-13T06:57:14.113Z,4.03
2023-02-13T06:59:41.531Z,4.77
2023-02-13T07:02:10.661Z,4.03
2023-02-13T07:04:38.402Z,4.37
2023-02-13T07:07:06.110Z,4.53
2023-02-13T07:09:33.655Z,3.87
2023-02-13T07:12:03.979Z,3.20
2023-02-13T07:14:31.498Z,3.30
2023-02-13T07:16:59.077Z,3.63
2023-02-13T07:19:26.549Z,3.70
2023-02-13T07:21:53.958Z,3.33
2023-02-13T07:24:21.392Z,3.03
2023-02-13T07:26:48.844Z,3.03
2023-02-13T07:29:16.230Z,4.77
2023-02-13T07:31:43.747Z,3.27
2023-02-13T07:34:11.113Z,3.77
2023-02-13T07:36:38.497Z,3.23
2023-02-13T07:39:05.862Z,4.00
2023-02-13T07:41:33.246Z,3.43
2023-02-13T07:44:00.684Z,4.07
2023-02-13T07:46:28.197Z,4.40
2023-02-13T07:48:56.404Z,3.70
2023-02-13T07:51:25.467Z,3.70
2023-02-13T07:53:54.047Z,4.03
2023-02-13T07:56:22.070Z,4.37
2023-02-13T07:58:49.530Z,3.63
2023-02-13T08:01:17.605Z,3.57
2023-02-13T08:03:48.575Z,17.47
2023-02-13T08:06:16.046Z,4.97
2023-02-13T08:08:43.539Z,4.87
2023-02-13T08:11:42.123Z,7.17
2023-02-13T08:14:09.772Z,4.53
2023-02-13T08:16:37.269Z,3.67
2023-02-13T08:19:04.707Z,3.50
2023-02-13T08:21:32.301Z,4.23
2023-02-13T08:24:00.274Z,4.20
2023-02-13T08:26:27.680Z,3.20
2023-02-13T08:28:56.156Z,5.20
2023-02-13T08:31:23.702Z,4.00
2023-02-13T08:33:51.600Z,3.83
2023-02-13T08:36:21.100Z,4.00
2023-02-13T08:38:48.688Z,4.43
2023-02-13T08:41:18.487Z,4.30
2023-02-13T08:43:46.202Z,3.70
2023-02-13T08:46:13.715Z,3.03
2023-02-13T08:48:41.193Z,3.57
2023-02-13T08:51:09.219Z,3.40
2023-02-13T08:53:37.287Z,4.03
2023-02-13T08:56:04.867Z,4.57
2023-02-13T08:58:32.617Z,3.87
2023-02-13T09:01:00.058Z,4.40
2023-02-13T09:03:27.576Z,3.60
2023-02-13T09:05:54.977Z,3.63
2023-02-13T09:08:22.652Z,3.70
2023-02-13T09:10:56.220Z,4.17
2023-02-13T09:13:23.609Z,3.90
2023-02-13T09:15:51.066Z,3.53
2023-02-13T09:18:18.529Z,3.40
2023-02-13T09:20:45.993Z,3.37
2023-02-13T09:23:13.401Z,4.10
2023-02-13T09:25:40.754Z,3.23
2023-02-13T09:28:08.209Z,3.20
2023-02-13T09:30:35.785Z,3.10
2023-02-13T09:33:03.221Z,3.37
2023-02-13T09:35:30.631Z,3.80
2023-02-13T09:37:58.051Z,3.97
2023-02-13T09:40:28.447Z,3.80
2023-02-13T09:43:03.184Z,3.17
2023-02-13T09:45:30.627Z,3.20
2023-02-13T09:47:58.092Z,3.10
2023-02-13T09:50:28.095Z,2.80
2023-02-13T09:52:56.421Z,3.17
2023-02-13T09:55:28.164Z,3.20
2023-02-13T09:58:16.397Z,3.33
2023-02-13T10:00:45.374Z,8.20
2023-02-13T10:03:31.892Z,3.53
2023-02-13T10:06:19.154Z,3.13
2023-02-13T10:09:00.066Z,3.30
2023-02-13T10:11:34.627Z,3.57
2023-02-13T10:14:21.933Z,3.45
2023-02-13T10:16:52.129Z,3.47
2023-02-13T10:19:39.341Z,2.87
2023-02-13T10:22:11.031Z,2.90
2023-02-13T10:24:52.981Z,3.57
2023-02-13T10:27:23.568Z,2.93
2023-02-13T10:30:12.920Z,2.33
2023-02-13T10:33:20.107Z,2.83
2023-02-13T10:36:07.325Z,3.33
2023-02-13T10:38:35.538Z,2.50
2023-02-13T10:41:22.777Z,3.53
2023-02-13T10:44:11.086Z,2.87
2023-02-13T10:46:58.358Z,3.47
2023-02-13T10:49:45.626Z,2.53
2023-02-13T10:52:32.902Z,2.83
2023-02-13T10:55:20.178Z,3.10
2023-02-13T10:58:07.447Z,3.20
2023-02-13T11:00:38.854Z,2.57
2023-02-13T11:03:06.210Z,3.13
2023-02-13T11:05:37.168Z,2.77
2023-02-13T11:08:04.825Z,2.80
2023-02-13T11:10:32.225Z,2.67
2023-02-13T11:13:15.373Z,3.03
2023-02-13T11:15:42.894Z,2.80
2023-02-13T11:18:27.761Z,2.67
2023-02-13T11:21:15.009Z,3.35
2023-02-13T11:23:45.994Z,3.10
2023-02-13T11:26:16.252Z,2.53
2023-02-13T11:29:03.069Z,3.80
2023-02-13T11:31:31.961Z,3.07
2023-02-13T11:34:00.774Z,2.93
2023-02-13T11:36:47.999Z,2.60
2023-02-13T11:39:19.527Z,3.00
2023-02-13T11:41:47.705Z,3.50
2023-02-13T11:44:21.498Z,2.87
2023-02-13T11:46:50.277Z,3.17
2023-02-13T11:49:20.039Z,3.20
2023-02-13T11:51:48.807Z,4.43
2023-02-13T11:54:36.122Z,3.50
2023-02-13T11:57:18.319Z,2.90
2023-02-13T11:59:46.968Z,3.13
2023-02-13T12:02:23.192Z,2.83
2023-02-13T12:04:57.251Z,3.00
2023-02-13T12:07:44.533Z,2.90
2023-02-13T12:10:21.842Z,2.70
2023-02-13T12:12:57.382Z,2.20
2023-02-13T12:15:29.849Z,11.93
2023-02-13T12:18:17.277Z,2.83
2023-02-13T12:20:51.997Z,3.20
2023-02-13T12:23:39.305Z,6.13
2023-02-13T12:29:54.551Z,3.07
2023-02-13T12:32:27.136Z,3.40
2023-02-13T12:35:14.371Z,2.70
2023-02-13T12:38:01.662Z,3.03
2023-02-13T12:40:35.551Z,2.73
2023-02-13T12:43:22.787Z,3.40
2023-02-13T12:46:10.280Z,3.47
2023-02-13T12:48:57.569Z,3.53
2023-02-13T12:51:44.972Z,2.73
2023-02-13T12:54:32.175Z,3.47
2023-02-13T12:57:19.359Z,3.13
2023-02-13T12:59:55.532Z,2.97
2023-02-13T13:02:42.833Z,3.97
2023-02-13T13:05:17.931Z,3.07
2023-02-13T13:08:05.218Z,2.88
2023-02-13T13:10:52.452Z,2.23
2023-02-13T13:13:39.703Z,2.60
2023-02-13T13:16:26.969Z,2.50
2023-02-13T13:19:14.352Z,3.03
2023-02-13T13:22:01.591Z,2.60
2023-02-13T13:24:48.775Z,3.03
2023-02-13T13:27:19.591Z,3.17
2023-02-13T13:29:49.760Z,2.50
2023-02-13T13:32:21.205Z,2.67
2023-02-13T13:34:48.813Z,3.53
2023-02-13T13:37:36.140Z,2.50
2023-02-13T13:40:23.566Z,6.63
2023-02-13T13:42:54.630Z,5.60
2023-02-13T13:45:31.356Z,2.73
2023-02-13T13:48:06.930Z,4.23
2023-02-13T13:50:36.541Z,2.77
2023-02-13T13:53:24.036Z,2.97
2023-02-13T13:56:11.331Z,3.43
2023-02-13T13:58:58.566Z,3.50
2023-02-13T14:01:33.190Z,3.33
2023-02-13T14:04:03.676Z,3.13
2023-02-13T14:06:50.921Z,3.37
2023-02-13T14:09:38.167Z,2.80
2023-02-13T14:12:25.436Z,3.20
2023-02-13T14:14:53.545Z,3.77
2023-02-13T14:17:40.765Z,4.00
2023-02-13T14:20:28.130Z,3.30
2023-02-13T14:22:55.728Z,4.37
2023-02-13T14:25:28.126Z,3.30
2023-02-13T14:27:57.849Z,3.70
2023-02-13T14:30:30.627Z,2.80
2023-02-13T14:32:58.377Z,3.33
2023-02-13T14:35:27.729Z,3.13
2023-02-13T14:37:58.609Z,4.00
2023-02-13T14:40:45.849Z,4.80
2023-02-13T14:43:22.603Z,4.10
2023-02-13T14:46:09.881Z,3.27
2023-02-13T14:48:42.654Z,3.70
2023-02-13T14:51:17.244Z,3.00
2023-02-13T14:53:49.233Z,3.47
2023-02-13T14:56:19.093Z,3.90
2023-02-13T14:58:50.890Z,3.90
2023-02-13T15:01:24.681Z,3.63
2023-02-13T15:03:55.636Z,4.70
2023-02-13T15:06:26.455Z,4.00
2023-02-13T15:08:54.589Z,3.53
2023-02-13T15:11:43.059Z,3.47
2023-02-13T15:14:30.419Z,3.70
2023-02-13T15:17:00.648Z,3.93
2023-02-13T15:19:28.522Z,3.03
2023-02-13T15:21:57.965Z,3.90
2023-02-13T15:24:26.026Z,8.43
2023-02-13T15:26:56.538Z,3.93
2023-02-13T15:29:35.148Z,3.57
2023-02-13T15:32:19.289Z,4.53
2023-02-13T15:34:48.709Z,4.47
2023-02-13T15:37:24.292Z,3.60
2023-02-13T15:39:51.708Z,4.53
2023-02-13T15:42:19.142Z,4.17
2023-02-13T15:44:48.221Z,3.97
2023-02-13T15:47:18.318Z,4.63
2023-02-13T15:49:47.402Z,4.20
2023-02-13T15:52:19.080Z,4.33
2023-02-13T15:54:51.350Z,5.43
2023-02-13T15:57:19.227Z,5.07
2023-02-13T15:59:47.134Z,5.00
2023-02-13T16:02:20.248Z,6.67
2023-02-13T16:04:48.548Z,6.43
2023-02-13T16:07:16.395Z,5.43
2023-02-13T16:09:43.964Z,4.67
2023-02-13T16:12:27.823Z,5.90
2023-02-13T16:14:57.898Z,6.23
2023-02-13T16:17:31.268Z,6.63
2023-02-13T16:20:00.518Z,5.33
2023-02-13T16:22:47.778Z,6.70
2023-02-13T16:25:35.088Z,6.23
2023-02-13T16:28:03.729Z,6.27
2023-02-13T16:30:35.976Z,8.83
2023-02-13T16:33:21.593Z,6.37
2023-02-13T16:36:08.896Z,6.88
2023-02-13T16:38:52.089Z,6.10
2023-02-13T16:41:39.272Z,6.53
2023-02-13T16:44:06.652Z,6.07
2023-02-13T16:46:35.151Z,6.53
2023-02-13T16:49:22.414Z,6.10
2023-02-13T16:52:11.458Z,6.50
2023-02-13T16:54:58.758Z,6.10
2023-02-13T16:57:30.726Z,6.47
2023-02-13T16:59:59.932Z,7.33
2023-02-13T17:02:47.125Z,5.70
2023-02-13T17:05:17.635Z,6.40
2023-02-13T17:07:48.480Z,7.17
2023-02-13T17:10:35.842Z,7.47
2023-02-13T17:13:05.153Z,7.00
2023-02-13T17:15:32.732Z,6.87
2023-02-13T17:18:00.105Z,6.70
2023-02-13T17:20:28.841Z,6.93
2023-02-13T17:22:58.616Z,6.63
2023-02-13T17:25:48.196Z,6.33
2023-02-13T17:28:18.140Z,9.23
2023-02-13T17:30:46.198Z,7.20
2023-02-13T17:33:15.566Z,7.40
2023-02-13T17:35:42.957Z,7.03
2023-02-13T17:38:10.935Z,8.37
2023-02-13T17:40:38.347Z,6.60
2023-02-13T17:43:05.804Z,7.17
2023-02-13T17:45:34.173Z,8.27
2023-02-13T17:48:01.599Z,7.47
2023-02-13T17:50:30.755Z,8.87
2023-02-13T17:52:58.584Z,8.00
2023-02-13T17:55:27.342Z,7.50
2023-02-13T17:57:56.650Z,7.40
2023-02-13T18:00:24.814Z,6.63
2023-02-13T18:02:52.570Z,5.90
2023-02-13T18:05:20.081Z,5.63
2023-02-13T18:07:48.002Z,5.77
2023-02-13T18:10:16.461Z,6.10
2023-02-13T18:12:44.197Z,6.27
2023-02-13T18:15:11.902Z,7.73
2023-02-13T18:17:39.362Z,8.00
2023-02-13T18:20:07.411Z,6.37
2023-02-13T18:22:34.902Z,6.93
2023-02-13T18:25:02.504Z,6.40
2023-02-13T18:27:30.110Z,6.93
2023-02-13T18:29:57.648Z,7.97
2023-02-13T18:32:25.449Z,6.07
2023-02-13T18:34:52.872Z,5.67
2023-02-13T18:37:20.859Z,6.07
2023-02-13T18:39:48.222Z,5.73
2023-02-13T18:42:15.676Z,5.93
2023-02-13T18:44:43.220Z,5.97
2023-02-13T18:47:10.776Z,6.03
2023-02-13T18:49:38.189Z,6.53
2023-02-13T18:52:05.706Z,7.10
2023-02-13T18:54:33.261Z,6.33
2023-02-13T18:57:00.651Z,7.13
2023-02-13T18:59:28.128Z,5.60
2023-02-13T19:01:55.628Z,5.90
2023-02-13T19:04:23.181Z,6.20
2023-02-13T19:06:50.612Z,6.17
2023-02-13T19:09:18.064Z,5.20
2023-02-13T19:11:45.580Z,6.33
2023-02-13T19:14:14.170Z,6.70
2023-02-13T19:16:42.360Z,8.10
2023-02-13T19:19:11.423Z,8.37
2023-02-13T19:21:39.621Z,6.23
2023-02-13T19:24:08.892Z,6.73
2023-02-13T19:26:36.494Z,5.90
2023-02-13T19:29:04.212Z,5.47
2023-02-13T19:31:32.631Z,5.97
2023-02-13T19:34:00.866Z,6.33
2023-02-13T19:36:29.207Z,6.43
2023-02-13T19:38:57.778Z,6.13
2023-02-13T19:41:25.603Z,5.70
2023-02-13T19:43:54.212Z,5.90
2023-02-13T19:46:22.873Z,6.03
2023-02-13T19:48:50.549Z,6.13
2023-02-13T19:51:19.429Z,5.50
2023-02-13T19:53:47.246Z,5.73
2023-02-13T19:56:15.035Z,5.90
2023-02-13T19:58:43.346Z,5.87
2023-02-13T20:01:13.576Z,6.30
2023-02-13T20:03:41.548Z,6.90
2023-02-13T20:06:10.722Z,6.40
2023-02-13T20:08:38.471Z,6.57
2023-02-13T20:11:08.190Z,5.97
2023-02-13T20:13:35.628Z,5.77
2023-02-13T20:16:06.985Z,6.53
2023-02-13T20:18:35.813Z,6.07
2023-02-13T20:21:13.032Z,5.73
2023-02-13T20:23:40.498Z,5.50
2023-02-13T20:26:09.084Z,6.00
2023-02-13T20:28:36.521Z,6.03
2023-02-13T20:31:10.584Z,7.23
2023-02-13T20:33:39.141Z,5.97
2023-02-13T20:36:10.832Z,5.40
2023-02-13T20:38:38.309Z,5.90
2023-02-13T20:41:15.131Z,6.37
2023-02-13T20:43:42.610Z,6.27
2023-02-13T20:46:10.318Z,6.60
2023-02-13T20:48:38.353Z,7.37
2023-02-13T20:51:07.598Z,7.20
2023-02-13T20:53:35.536Z,6.33
2023-02-13T20:56:05.347Z,6.50
2023-02-13T20:58:33.177Z,6.20
2023-02-13T21:01:01.334Z,6.50
2023-02-13T21:03:29.036Z,6.37
2023-02-13T21:05:56.528Z,6.57
2023-02-13T21:08:23.954Z,6.13
2023-02-13T21:10:51.376Z,6.50
2023-02-13T21:13:18.798Z,6.73
2023-02-13T21:15:49.144Z,6.97
2023-02-13T21:18:16.880Z,6.53
2023-02-13T21:20:44.302Z,8.20
2023-02-13T21:23:11.817Z,7.00
2023-02-13T21:25:39.341Z,7.37
2023-02-13T21:28:06.796Z,6.90
2023-02-13T21:30:36.707Z,7.40
2023-02-13T21:33:04.137Z,7.63
2023-02-13T21:35:31.577Z,6.67
2023-02-13T21:37:59.037Z,7.00
2023-02-13T21:40:26.499Z,6.50
2023-02-13T21:42:54.184Z,7.90
2023-02-13T21:45:21.649Z,6.43
2023-02-13T21:47:49.076Z,7.20
2023-02-13T21:50:16.621Z,6.73
2023-02-13T21:52:44.097Z,6.87
2023-02-13T21:55:11.547Z,6.47
2023-02-13T21:57:39.973Z,7.03
2023-02-13T22:00:10.588Z,6.63
2023-02-13T22:02:39.805Z,7.23
2023-02-13T22:05:07.515Z,8.00
2023-02-13T22:07:54.779Z,6.67
2023-02-13T22:10:22.145Z,6.00
2023-02-13T22:12:53.630Z,6.33
2023-02-13T22:15:21.607Z,7.33
2023-02-13T22:17:48.970Z,7.07
2023-02-13T22:20:16.452Z,6.83
2023-02-13T22:23:09.216Z,6.10
2023-02-13T22:25:36.698Z,7.40
2023-02-13T22:28:04.099Z,6.97
2023-02-13T22:30:31.544Z,7.03
2023-02-13T22:32:59.223Z,8.77
2023-02-13T22:35:26.608Z,6.87
2023-02-13T22:37:53.961Z,6.80
2023-02-13T22:40:21.328Z,7.07
2023-02-13T22:42:48.704Z,7.20
2023-02-13T22:45:16.110Z,7.20
2023-02-13T22:47:43.519Z,6.53
2023-02-13T22:50:10.983Z,7.33
2023-02-13T22:52:38.403Z,7.27
2023-02-13T22:55:06.038Z,6.87
2023-02-13T22:57:33.424Z,6.03
2023-02-13T23:00:00.804Z,7.80
2023-02-13T23:02:28.417Z,6.53
2023-02-13T23:04:55.905Z,6.93
2023-02-13T23:07:23.286Z,6.30
2023-02-13T23:09:50.713Z,7.10
2023-02-13T23:12:37.985Z,6.70
2023-02-13T23:15:21.328Z,6.33
2023-02-13T23:18:08.565Z,6.30
2023-02-13T23:20:36.047Z,6.80
2023-02-13T23:23:04.885Z,6.53
2023-02-13T23:25:32.460Z,7.33
2023-02-13T23:27:59.813Z,7.33
2023-02-13T23:30:28.669Z,7.27
2023-02-13T23:32:56.100Z,6.47
2023-02-13T23:35:23.739Z,7.53
2023-02-13T23:37:51.161Z,6.10
2023-02-13T23:40:18.616Z,6.10
2023-02-13T23:42:46.318Z,6.23
2023-02-13T23:45:13.941Z,6.90
2023-02-13T23:47:41.317Z,5.73
2023-02-13T23:50:09.473Z,6.07
2023-02-13T23:52:36.877Z,5.87
2023-02-13T23:55:04.408Z,5.83
2023-02-13T23:57:31.937Z,6.87
2023-02-13T23:59:59.293Z,6.73
